Time;durP1;ratioP1;P1;durP2;ratioP2;P2;SDS_P1;SDS_P2;PMS_P1;PMS_P2;Temp;Humidity;BMP_temperature;BMP_pressure;BME280_temperature;BME280_humidity;BME280_pressure;Samples;Min_cycle;Max_cycle;Signal;HPM_P1;HPM_P2
2022/12/16 00:01:21;;;;;;;60.13;38.72;;;5.70;99.90;;;;;;5046197;28;20025;-72
2022/12/16 00:03:52;;;;;;;52.70;34.30;;;5.60;99.90;;;;;;5040613;28;20021;-74
2022/12/16 00:06:19;;;;;;;55.15;34.22;;;5.70;99.90;;;;;;5044372;28;20050;-71
2022/12/16 00:08:45;;;;;;;56.92;34.55;;;5.70;99.90;;;;;;5046972;28;20028;-72
2022/12/16 00:11:11;;;;;;;53.88;32.33;;;5.60;99.90;;;;;;5053241;28;20025;-72
2022/12/16 00:13:41;;;;;;;54.65;32.35;;;5.60;99.90;;;;;;5042461;28;20048;-72
2022/12/16 00:16:11;;;;;;;50.50;32.33;;;5.70;99.90;;;;;;5047264;28;20060;-72
2022/12/16 00:18:37;;;;;;;59.75;34.63;;;5.70;99.90;;;;;;5046909;28;20024;-72
2022/12/16 00:21:04;;;;;;;57.00;35.10;;;5.70;99.90;;;;;;5011989;28;20093;-72
2022/12/16 00:23:31;;;;;;;55.72;34.08;;;5.80;99.90;;;;;;5024423;28;20151;-71
2022/12/16 00:25:57;;;;;;;51.83;34.30;;;5.80;99.90;;;;;;5024786;28;20022;-72
2022/12/16 00:28:23;;;;;;;51.83;32.95;;;5.80;99.90;;;;;;5027421;28;20025;-72
2022/12/16 00:30:51;;;;;;;55.35;34.70;;;5.80;99.90;;;;;;5028970;28;20022;-73
2022/12/16 00:33:18;;;;;;;54.85;32.58;;;5.60;99.90;;;;;;5021147;28;20022;-73
2022/12/16 00:35:45;;;;;;;53.47;33.28;;;5.70;99.90;;;;;;5023055;28;20065;-72
2022/12/16 00:38:11;;;;;;;59.65;35.28;;;5.60;99.90;;;;;;5021572;28;20109;-73
2022/12/16 00:40:37;;;;;;;53.85;32.13;;;5.60;99.90;;;;;;5023712;28;20108;-72
2022/12/16 00:43:02;;;;;;;56.22;34.63;;;5.60;99.90;;;;;;5026659;28;20036;-72
2022/12/16 00:45:29;;;;;;;55.47;33.28;;;5.60;99.90;;;;;;5031266;28;20036;-72
2022/12/16 00:47:55;;;;;;;56.67;35.85;;;5.70;99.90;;;;;;5027329;28;20021;-72
2022/12/16 00:50:21;;;;;;;54.80;35.10;;;5.70;99.90;;;;;;5031682;28;20124;-71
2022/12/16 00:52:47;;;;;;;74.85;54.92;;;5.70;99.90;;;;;;5023479;28;20060;-70
2022/12/16 00:55:15;;;;;;;184.68;126.10;;;5.70;99.90;;;;;;5032228;28;20025;-71
2022/12/16 00:57:41;;;;;;;201.15;122.68;;;5.70;99.90;;;;;;5032605;28;20116;-71
2022/12/16 01:00:11;;;;;;;231.40;152.00;;;5.70;99.90;;;;;;5032586;28;20421;-71
2022/12/16 01:02:41;;;;;;;190.88;127.38;;;5.70;99.90;;;;;;5029488;28;20527;-71
2022/12/16 01:05:09;;;;;;;120.78;82.05;;;5.70;99.90;;;;;;5019293;28;20025;-71
2022/12/16 01:07:35;;;;;;;222.40;150.77;;;5.80;99.90;;;;;;5032448;28;20109;-71
2022/12/16 01:10:02;;;;;;;127.13;92.20;;;5.80;99.90;;;;;;5022233;28;20117;-71
2022/12/16 01:12:28;;;;;;;98.53;73.03;;;5.80;99.90;;;;;;5032579;28;20041;-71
2022/12/16 01:14:53;;;;;;;95.05;71.78;;;5.90;99.90;;;;;;5031183;28;20029;-71
2022/12/16 01:17:19;;;;;;;103.35;75.38;;;6.00;99.90;;;;;;5032128;28;20916;-71
2022/12/16 01:19:45;;;;;;;86.90;67.35;;;6.10;99.90;;;;;;5029924;28;20038;-71
2022/12/16 01:22:11;;;;;;;77.85;56.08;;;6.10;99.90;;;;;;5052187;28;20028;-71
2022/12/16 01:24:37;;;;;;;64.03;39.83;;;6.10;99.90;;;;;;5051747;28;20036;-71
2022/12/16 01:27:03;;;;;;;74.88;55.60;;;6.10;99.90;;;;;;5052270;28;20027;-71
2022/12/16 01:29:28;;;;;;;104.63;82.30;;;6.00;99.90;;;;;;5051702;28;20021;-71
2022/12/16 01:31:54;;;;;;;93.03;70.68;;;6.00;99.90;;;;;;5051013;28;20060;-71
2022/12/16 01:34:20;;;;;;;94.70;71.03;;;6.10;99.90;;;;;;5052103;28;20028;-72
2022/12/16 01:36:46;;;;;;;100.00;76.28;;;6.20;99.90;;;;;;5030854;28;20500;-72
2022/12/16 01:39:12;;;;;;;84.43;61.72;;;6.30;99.90;;;;;;5052198;28;20029;-71
2022/12/16 01:41:38;;;;;;;59.80;42.38;;;6.50;99.90;;;;;;5051710;28;20473;-72
2022/12/16 01:44:17;;;;;;;52.03;35.22;;;6.60;99.90;;;;;;5034338;28;20025;-72
2022/12/16 01:46:52;;;;;;;45.53;27.70;;;6.80;99.90;;;;;;5036641;28;20044;-72
2022/12/16 01:49:40;;;;;;;38.50;25.42;;;7.10;99.90;;;;;;5040373;28;20399;-72
2022/12/16 01:52:16;;;;;;;35.95;23.13;;;7.20;99.90;;;;;;5047734;28;20022;-72
2022/12/16 01:54:49;;;;;;;38.78;24.27;;;7.30;99.90;;;;;;5051742;28;20033;-71
2022/12/16 01:57:19;;;;;;;43.83;25.70;;;7.40;99.90;;;;;;5051409;28;20484;-73
2022/12/16 01:59:50;;;;;;;37.38;24.23;;;7.40;99.90;;;;;;5051819;28;20107;-72
2022/12/16 02:02:16;;;;;;;34.92;22.88;;;7.50;99.90;;;;;;5033323;28;20536;-72
2022/12/16 02:07:26;;;;;;;38.70;23.77;;;7.50;99.90;;;;;;5048372;28;20476;-73
2022/12/16 02:09:52;;;;;;;30.55;21.15;;;7.60;99.90;;;;;;5050641;28;20033;-72
2022/12/16 02:12:32;;;;;;;35.92;21.38;;;7.70;99.90;;;;;;5024916;28;20397;-72
2022/12/16 02:15:23;;;;;;;38.80;22.70;;;7.70;99.90;;;;;;5051425;28;20067;-72
2022/12/16 02:18:16;;;;;;;39.55;24.67;;;7.70;99.90;;;;;;5040762;28;20056;-72
2022/12/16 02:21:12;;;;;;;44.00;27.35;;;7.80;99.90;;;;;;5046742;28;20057;-72
2022/12/16 02:23:54;;;;;;;34.10;21.02;;;7.90;99.90;;;;;;5036056;28;20396;-73
2022/12/16 02:26:40;;;;;;;32.70;20.73;;;7.80;99.90;;;;;;5047227;28;20078;-73
2022/12/16 02:29:26;;;;;;;30.25;18.85;;;7.80;99.90;;;;;;5051684;28;20079;-73
2022/12/16 02:32:29;;;;;;;34.17;20.20;;;7.80;99.90;;;;;;5053575;28;20118;-72
2022/12/16 02:35:09;;;;;;;27.80;17.30;;;7.90;99.90;;;;;;5045248;28;20045;-73
2022/12/16 02:37:48;;;;;;;32.55;18.33;;;8.00;99.90;;;;;;5035786;28;20104;-73
2022/12/16 02:40:42;;;;;;;27.52;18.75;;;8.10;99.90;;;;;;5053610;28;20472;-72
2022/12/16 02:43:44;;;;;;;31.02;19.17;;;8.30;99.90;;;;;;5049992;28;20025;-72
2022/12/16 02:46:10;;;;;;;27.90;18.40;;;8.30;99.90;;;;;;5048140;28;20075;-72
2022/12/16 02:48:36;;;;;;;35.30;23.83;;;8.30;99.90;;;;;;5053853;28;20025;-72
2022/12/16 02:51:02;;;;;;;52.08;42.72;;;8.30;99.90;;;;;;5053189;28;20033;-72
2022/12/16 02:53:30;;;;;;;59.60;45.80;;;8.40;99.90;;;;;;5053550;28;20107;-73
2022/12/16 02:56:05;;;;;;;58.35;43.70;;;8.50;99.90;;;;;;5053222;28;20099;-73
2022/12/16 02:58:36;;;;;;;61.42;44.45;;;8.60;99.90;;;;;;5053353;28;20362;-72
2022/12/16 03:01:10;;;;;;;49.65;35.63;;;8.60;99.90;;;;;;5053382;28;20115;-73
2022/12/16 03:03:46;;;;;;;30.10;21.92;;;8.70;99.90;;;;;;5035583;28;20033;-72
2022/12/16 03:06:17;;;;;;;26.85;16.27;;;8.80;99.90;;;;;;5053257;28;20103;-72
2022/12/16 03:08:46;;;;;;;25.63;14.25;;;9.00;99.90;;;;;;5053137;28;20443;-72
2022/12/16 03:11:13;;;;;;;19.80;11.25;;;9.10;99.90;;;;;;5053035;28;20076;-72
2022/12/16 03:13:45;;;;;;;20.58;11.57;;;9.20;99.90;;;;;;5053385;28;20052;-73
2022/12/16 03:16:16;;;;;;;23.40;10.30;;;9.30;99.90;;;;;;5053070;28;20032;-73
2022/12/16 03:18:46;;;;;;;18.15;9.15;;;9.50;99.90;;;;;;5056918;28;20069;-72
2022/12/16 03:21:14;;;;;;;17.15;8.65;;;9.60;99.90;;;;;;5052226;28;20099;-73
2022/12/16 03:24:01;;;;;;;18.65;9.40;;;9.80;99.90;;;;;;5052707;28;20067;-72
2022/12/16 03:26:41;;;;;;;15.00;6.95;;;9.90;99.90;;;;;;5034941;28;20045;-73
2022/12/16 03:29:24;;;;;;;15.55;7.97;;;10.00;99.90;;;;;;5051848;28;20017;-73
2022/12/16 03:31:51;;;;;;;17.50;8.73;;;10.10;99.90;;;;;;5049328;28;20036;-73
2022/12/16 03:34:43;;;;;;;17.65;8.60;;;10.10;99.90;;;;;;5052371;28;20013;-73
2022/12/16 03:37:11;;;;;;;16.63;8.00;;;10.20;99.90;;;;;;5031446;28;20468;-72
2022/12/16 03:39:46;;;;;;;16.65;8.45;;;10.20;99.90;;;;;;5052436;28;20071;-73
2022/12/16 03:42:14;;;;;;;15.50;8.65;;;10.20;99.90;;;;;;5052242;28;20094;-72
2022/12/16 03:44:45;;;;;;;15.95;8.30;;;10.20;99.90;;;;;;5052242;28;20064;-73
2022/12/16 03:47:11;;;;;;;18.05;9.00;;;10.20;99.90;;;;;;5048105;28;20021;-72
2022/12/16 03:49:37;;;;;;;14.68;8.30;;;10.30;99.90;;;;;;5034030;28;20033;-72
2022/12/16 03:52:04;;;;;;;17.60;8.60;;;10.40;99.90;;;;;;5049204;28;20021;-73
2022/12/16 03:54:30;;;;;;;14.75;7.72;;;10.40;99.90;;;;;;5052484;28;20459;-73
2022/12/16 03:56:56;;;;;;;22.85;13.13;;;10.40;99.90;;;;;;5051992;28;20045;-73
2022/12/16 03:59:22;;;;;;;37.92;22.67;;;10.50;99.90;;;;;;5034573;28;20083;-73
2022/12/16 04:01:48;;;;;;;25.33;12.27;;;10.50;99.90;;;;;;5051876;28;20036;-73
2022/12/16 04:04:15;;;;;;;16.92;9.63;;;10.50;99.90;;;;;;5052272;28;20062;-73
2022/12/16 04:06:41;;;;;;;18.23;9.15;;;10.50;99.90;;;;;;5051988;28;20040;-71
2022/12/16 04:09:07;;;;;;;17.20;9.25;;;10.50;99.90;;;;;;5052054;28;20021;-73
2022/12/16 04:25:32;;;;;;;16.23;9.32;;;10.30;99.90;;;;;;5051747;28;20025;-70
2022/12/16 04:27:59;;;;;;;19.48;9.40;;;10.40;99.90;;;;;;5047828;28;20052;-71
2022/12/16 04:30:26;;;;;;;18.05;10.02;;;10.30;99.90;;;;;;5051920;28;20439;-72
